createdAt,value
2017-03-20T00:00:16.139Z,10.71
2017-03-20T00:01:37.688Z,10.74
2017-03-20T00:03:00.144Z,10.74
2017-03-20T00:04:22.909Z,10.7
2017-03-20T00:05:45.457Z,10.76
2017-03-20T00:07:06.655Z,10.7
2017-03-20T00:08:28.851Z,10.71
2017-03-20T00:09:51.617Z,10.67
2017-03-20T00:11:13.762Z,10.67
2017-03-20T00:12:36.234Z,10.73
2017-03-20T00:13:57.751Z,10.68
2017-03-20T00:15:20.197Z,10.66
2017-03-20T00:16:42.437Z,10.71
2017-03-20T00:18:04.278Z,10.78
2017-03-20T00:19:25.812Z,10.74
2017-03-20T00:20:48.216Z,10.73
2017-03-20T00:22:10.677Z,10.7
2017-03-20T00:23:33.151Z,10.7
2017-03-20T00:24:54.994Z,10.76
2017-03-20T00:26:17.075Z,10.76
2017-03-20T00:27:39.527Z,10.7
2017-03-20T00:29:02.002Z,10.78
2017-03-20T00:30:24.606Z,10.71
2017-03-20T00:31:46.351Z,10.74
2017-03-20T00:33:08.277Z,10.73
2017-03-20T00:34:30.956Z,10.71
2017-03-20T00:35:53.473Z,10.79
2017-03-20T00:37:16.182Z,10.71
2017-03-20T00:38:38.325Z,10.71
2017-03-20T00:39:59.823Z,10.76
2017-03-20T00:41:21.959Z,10.71
2017-03-20T00:42:44.089Z,10.7
2017-03-20T00:44:05.923Z,10.71
2017-03-20T00:45:27.737Z,10.74
2017-03-20T00:46:49.552Z,10.74
2017-03-20T00:48:11.927Z,10.74
2017-03-20T00:49:34.305Z,10.78
2017-03-20T00:50:56.200Z,10.7
2017-03-20T00:52:17.698Z,10.74
2017-03-20T00:53:40.075Z,10.74
2017-03-20T00:55:02.527Z,10.79
2017-03-20T00:56:25.148Z,10.71
2017-03-20T00:57:47.616Z,10.81
2017-03-20T00:59:09.883Z,10.76
2017-03-20T01:00:31.755Z,10.7
2017-03-20T01:01:53.902Z,10.71
2017-03-20T01:03:16.360Z,10.7
2017-03-20T01:04:38.846Z,10.73
2017-03-20T01:06:00.663Z,10.73
2017-03-20T01:07:22.489Z,10.74
2017-03-20T01:08:44.737Z,10.7
2017-03-20T01:10:06.591Z,10.68
2017-03-20T01:11:28.094Z,10.76
2017-03-20T01:12:49.618Z,10.76
2017-03-20T01:14:11.746Z,10.74
2017-03-20T01:15:34.188Z,10.7
2017-03-20T01:16:56.644Z,10.73
2017-03-20T01:18:18.789Z,10.73
2017-03-20T01:19:41.263Z,10.78
2017-03-20T01:21:03.755Z,10.73
2017-03-20T01:22:25.890Z,10.71
2017-03-20T01:23:48.019Z,10.68
2017-03-20T01:25:10.486Z,10.67
2017-03-20T01:26:32.896Z,10.74
2017-03-20T01:27:55.579Z,10.68
2017-03-20T01:29:17.425Z,10.68
2017-03-20T01:30:39.793Z,10.73
2017-03-20T01:32:02.557Z,10.78
2017-03-20T01:33:24.778Z,10.7
2017-03-20T01:34:46.938Z,10.73
2017-03-20T01:36:09.127Z,10.71
2017-03-20T01:37:30.760Z,10.73
2017-03-20T01:38:52.876Z,10.68
2017-03-20T01:40:15.278Z,10.74
2017-03-20T01:41:37.415Z,10.71
2017-03-20T01:42:59.532Z,10.7
2017-03-20T01:44:21.688Z,10.74
2017-03-20T01:45:43.817Z,10.78
2017-03-20T01:47:06.258Z,10.76
2017-03-20T01:48:29.067Z,10.73
2017-03-20T01:49:51.307Z,10.7
2017-03-20T01:51:13.208Z,10.7
2017-03-20T01:52:35.786Z,10.74
2017-03-20T01:53:58.173Z,10.68
2017-03-20T01:55:19.999Z,10.71
2017-03-20T01:56:42.435Z,10.74
2017-03-20T01:58:03.931Z,10.68
2017-03-20T01:59:26.634Z,10.71
2017-03-20T02:00:48.438Z,10.73
2017-03-20T02:02:10.585Z,10.73
2017-03-20T02:03:32.505Z,10.74
2017-03-20T02:04:55.358Z,10.76
2017-03-20T02:06:17.810Z,10.71
2017-03-20T02:07:39.594Z,10.67
2017-03-20T02:09:01.502Z,10.74
2017-03-20T02:10:23.960Z,10.74
2017-03-20T02:11:46.558Z,10.79
2017-03-20T02:13:09.157Z,10.79
2017-03-20T02:14:30.668Z,10.85
2017-03-20T02:15:52.425Z,10.76
2017-03-20T02:17:14.247Z,10.81
2017-03-20T02:18:35.440Z,10.88
2017-03-20T02:19:57.574Z,10.74
2017-03-20T02:21:19.963Z,10.79
2017-03-20T02:22:42.085Z,10.79
2017-03-20T02:24:04.531Z,10.76
2017-03-20T02:25:26.876Z,10.84
2017-03-20T02:26:49.737Z,10.76
2017-03-20T02:28:12.208Z,10.74
2017-03-20T02:29:34.032Z,10.86
2017-03-20T02:30:56.143Z,10.7
2017-03-20T02:32:18.639Z,10.86
2017-03-20T02:33:41.154Z,10.74
2017-03-20T02:35:03.283Z,10.76
2017-03-20T02:36:25.423Z,10.82
2017-03-20T02:37:47.528Z,10.78
2017-03-20T02:39:09.982Z,10.74
2017-03-20T02:40:31.633Z,10.79
2017-03-20T02:41:53.056Z,10.85
2017-03-20T02:43:15.797Z,10.78
2017-03-20T02:44:37.607Z,10.81
2017-03-20T02:45:59.737Z,10.76
2017-03-20T02:47:21.625Z,10.86
2017-03-20T02:48:43.494Z,10.82
2017-03-20T02:50:05.938Z,10.82
2017-03-20T02:51:28.074Z,10.84
2017-03-20T02:52:50.201Z,10.84
2017-03-20T02:54:13.117Z,10.79
2017-03-20T02:55:35.256Z,10.92
2017-03-20T02:56:57.082Z,10.84
2017-03-20T02:58:19.516Z,10.79
2017-03-20T02:59:42.001Z,10.86
2017-03-20T03:01:03.515Z,10.82
2017-03-20T03:02:25.679Z,10.86
2017-03-20T03:03:47.723Z,10.85
2017-03-20T03:05:10.417Z,10.82
2017-03-20T03:06:32.249Z,10.92
2017-03-20T03:07:53.434Z,10.85
2017-03-20T03:09:15.693Z,10.84
2017-03-20T03:10:38.078Z,10.86
2017-03-20T03:12:00.185Z,10.88
2017-03-20T03:13:22.002Z,10.81
2017-03-20T03:14:44.170Z,10.86
2017-03-20T03:16:05.996Z,10.78
2017-03-20T03:17:27.800Z,10.86
2017-03-20T03:18:49.624Z,10.85
2017-03-20T03:20:11.427Z,10.85
2017-03-20T03:21:33.293Z,10.81
2017-03-20T03:22:55.778Z,10.91
2017-03-20T03:24:17.310Z,10.88
2017-03-20T03:25:39.782Z,10.82
2017-03-20T03:27:01.612Z,10.85
2017-03-20T03:28:24.072Z,10.85
2017-03-20T03:29:46.197Z,10.84
2017-03-20T03:31:08.325Z,10.84
2017-03-20T03:32:30.571Z,10.81
2017-03-20T03:33:52.408Z,10.96
2017-03-20T03:35:14.536Z,10.86
2017-03-20T03:36:36.711Z,10.85
2017-03-20T03:37:58.780Z,10.89
2017-03-20T03:39:20.400Z,10.91
2017-03-20T03:40:42.231Z,10.85
2017-03-20T03:42:04.056Z,10.82
2017-03-20T03:43:26.517Z,10.88
2017-03-20T03:44:48.346Z,10.91
2017-03-20T03:46:10.823Z,10.88
2017-03-20T03:47:32.339Z,10.88
2017-03-20T03:48:54.482Z,10.86
2017-03-20T03:50:16.957Z,10.82
2017-03-20T03:51:38.816Z,10.86
2017-03-20T03:53:00.996Z,10.85
2017-03-20T03:54:23.101Z,10.86
2017-03-20T03:55:45.661Z,10.82
2017-03-20T03:57:07.482Z,10.84
2017-03-20T03:58:29.633Z,10.84
2017-03-20T03:59:51.774Z,10.86
2017-03-20T04:01:13.642Z,10.86
2017-03-20T04:02:36.133Z,10.85
2017-03-20T04:03:58.275Z,10.84
2017-03-20T04:05:20.717Z,10.85
2017-03-20T04:06:42.826Z,10.84
2017-03-20T04:08:05.307Z,10.86
2017-03-20T04:09:27.454Z,10.88
2017-03-20T04:10:49.509Z,10.82
2017-03-20T04:12:11.744Z,10.91
2017-03-20T04:13:33.874Z,10.82
2017-03-20T04:14:56.355Z,10.91
2017-03-20T04:16:18.188Z,10.84
2017-03-20T04:17:40.106Z,10.88
2017-03-20T04:19:02.031Z,10.86
2017-03-20T04:20:23.887Z,10.88
2017-03-20T04:21:46.327Z,10.91
2017-03-20T04:23:07.845Z,10.85
2017-03-20T04:24:29.788Z,10.89
2017-03-20T04:25:51.601Z,10.89
2017-03-20T04:27:13.345Z,10.89
2017-03-20T04:28:35.807Z,10.85
2017-03-20T04:29:58.281Z,10.82
2017-03-20T04:31:20.443Z,10.89
2017-03-20T04:32:43.256Z,10.86
2017-03-20T04:34:05.094Z,10.88
2017-03-20T04:35:26.905Z,10.89
2017-03-20T04:36:48.410Z,10.88
2017-03-20T04:38:10.914Z,10.89
2017-03-20T04:39:32.097Z,10.76
2017-03-20T04:40:54.241Z,10.82
2017-03-20T04:42:16.375Z,10.84
2017-03-20T04:43:38.877Z,10.84
2017-03-20T04:45:00.755Z,10.81
2017-03-20T04:46:22.238Z,10.84
2017-03-20T04:47:44.717Z,10.85
2017-03-20T04:49:07.518Z,10.79
2017-03-20T04:50:29.041Z,10.88
2017-03-20T04:51:51.514Z,10.82
2017-03-20T04:53:13.342Z,10.84
2017-03-20T04:54:35.742Z,10.86
2017-03-20T04:55:57.924Z,10.81
2017-03-20T04:57:20.055Z,10.82
2017-03-20T04:58:42.608Z,10.76
2017-03-20T05:00:04.806Z,10.84
2017-03-20T05:01:26.635Z,10.82
2017-03-20T05:02:48.732Z,10.89
2017-03-20T05:04:11.363Z,10.78
2017-03-20T05:05:33.897Z,10.81
2017-03-20T05:06:56.344Z,10.84
2017-03-20T05:08:18.486Z,10.82
2017-03-20T05:09:40.624Z,10.74
2017-03-20T05:11:03.333Z,10.82
2017-03-20T05:12:25.960Z,10.84
2017-03-20T05:13:48.421Z,10.91
2017-03-20T05:15:10.248Z,10.84
2017-03-20T05:16:32.739Z,10.85
2017-03-20T05:17:54.257Z,10.79
2017-03-20T05:19:16.290Z,10.85
2017-03-20T05:20:38.484Z,10.89
2017-03-20T05:22:00.912Z,10.86
2017-03-20T05:23:23.059Z,10.86
2017-03-20T05:24:45.206Z,10.88
2017-03-20T05:26:07.419Z,10.84
2017-03-20T05:27:29.310Z,10.88
2017-03-20T05:28:51.465Z,10.88
2017-03-20T05:30:12.998Z,10.88
2017-03-20T05:31:35.482Z,10.88
2017-03-20T05:32:57.894Z,10.92
2017-03-20T05:34:19.705Z,10.91
2017-03-20T05:35:41.669Z,10.89
2017-03-20T05:37:03.487Z,10.89
2017-03-20T05:38:25.305Z,10.92
2017-03-20T05:39:47.517Z,10.88
2017-03-20T05:41:09.667Z,10.96
2017-03-20T05:42:32.105Z,10.99
2017-03-20T05:43:54.565Z,10.99
2017-03-20T05:45:16.396Z,11
2017-03-20T05:46:38.519Z,10.91
2017-03-20T05:48:00.665Z,10.94
2017-03-20T05:49:23.107Z,11.02
2017-03-20T05:50:45.602Z,10.96
2017-03-20T05:52:07.758Z,10.94
2017-03-20T05:53:30.214Z,10.97
2017-03-20T05:54:52.993Z,11.02
2017-03-20T05:56:15.137Z,11
2017-03-20T05:57:37.368Z,11.03
2017-03-20T05:58:59.514Z,11.09
2017-03-20T06:00:21.654Z,11.06
2017-03-20T06:01:43.476Z,11.07
2017-03-20T06:03:05.674Z,11.14
2017-03-20T06:04:27.844Z,11.15
2017-03-20T06:05:50.693Z,11.15
2017-03-20T06:07:12.849Z,11.19
2017-03-20T06:08:35.491Z,11.17
2017-03-20T06:09:57.674Z,11.15
2017-03-20T06:11:19.861Z,11.18
2017-03-20T06:12:42.003Z,11.19
2017-03-20T06:14:04.495Z,11.22
2017-03-20T06:15:25.750Z,11.32
2017-03-20T06:16:48.198Z,11.24
2017-03-20T06:18:10.044Z,11.32
2017-03-20T06:19:32.504Z,11.32
2017-03-20T06:20:54.660Z,11.33
2017-03-20T06:22:17.048Z,11.42
2017-03-20T06:23:39.515Z,11.36
2017-03-20T06:25:01.671Z,11.37
2017-03-20T06:26:23.549Z,11.43
2017-03-20T06:27:46.302Z,11.49
2017-03-20T06:29:07.807Z,11.51
2017-03-20T06:30:30.347Z,11.47
2017-03-20T06:31:52.775Z,11.46
2017-03-20T06:33:15.562Z,11.35
2017-03-20T06:34:37.413Z,11.33
2017-03-20T06:35:59.927Z,11.36
2017-03-20T06:37:22.113Z,11.35
2017-03-20T06:38:44.189Z,11.29
2017-03-20T06:40:06.312Z,11.39
2017-03-20T06:41:28.465Z,11.32
2017-03-20T06:42:50.644Z,11.37
2017-03-20T06:44:13.130Z,11.42
2017-03-20T06:45:34.703Z,11.47
2017-03-20T06:46:57.245Z,11.47
2017-03-20T06:48:19.484Z,11.46
2017-03-20T06:49:41.870Z,11.51
2017-03-20T06:51:04.334Z,11.62
2017-03-20T06:52:26.466Z,11.55
2017-03-20T06:53:47.655Z,11.52
2017-03-20T06:55:10.021Z,11.58
2017-03-20T06:56:32.275Z,11.52
2017-03-20T06:57:54.206Z,11.55
2017-03-20T06:59:16.375Z,11.54
2017-03-20T07:00:38.947Z,11.57
2017-03-20T07:02:01.423Z,11.51
2017-03-20T07:03:23.585Z,11.57
2017-03-20T07:04:45.404Z,11.55
2017-03-20T07:06:07.805Z,11.57
2017-03-20T07:07:29.995Z,11.57
2017-03-20T07:08:51.915Z,11.49
2017-03-20T07:10:13.879Z,11.51
2017-03-20T07:11:36.622Z,11.57
2017-03-20T07:12:58.697Z,11.51
2017-03-20T07:14:20.852Z,11.52
2017-03-20T07:15:42.369Z,11.52
2017-03-20T07:17:04.507Z,11.58
2017-03-20T07:18:26.656Z,11.43
2017-03-20T07:19:48.527Z,11.44
2017-03-20T07:21:10.703Z,11.47
2017-03-20T07:22:33.080Z,11.51
2017-03-20T07:23:55.528Z,11.4
2017-03-20T07:25:17.977Z,11.43
2017-03-20T07:26:39.815Z,11.52
2017-03-20T07:28:02.817Z,11.55
2017-03-20T07:29:24.952Z,11.64
2017-03-20T07:30:47.082Z,11.62
2017-03-20T07:32:08.925Z,11.7
2017-03-20T07:33:31.376Z,11.7
2017-03-20T07:34:53.677Z,11.83
2017-03-20T07:36:16.139Z,11.8
2017-03-20T07:37:38.357Z,11.88
2017-03-20T07:39:01.117Z,11.86
2017-03-20T07:40:23.607Z,11.88
2017-03-20T07:41:46.059Z,11.91
2017-03-20T07:43:08.229Z,11.96
2017-03-20T07:44:30.857Z,12.02
2017-03-20T07:45:52.703Z,11.99
2017-03-20T07:47:14.891Z,11.98
2017-03-20T07:48:37.057Z,11.91
2017-03-20T07:49:59.825Z,11.99
2017-03-20T07:51:21.700Z,11.88
2017-03-20T07:52:43.867Z,11.9
2017-03-20T07:54:06.442Z,11.7
2017-03-20T07:55:29.406Z,11.73
2017-03-20T07:56:51.868Z,11.72
2017-03-20T07:58:13.888Z,11.69
2017-03-20T07:59:36.158Z,11.64
2017-03-20T08:00:58.586Z,11.7
2017-03-20T08:02:20.125Z,11.73
2017-03-20T08:03:42.272Z,11.69
2017-03-20T08:05:04.426Z,11.7
2017-03-20T08:06:27.275Z,11.67
2017-03-20T08:07:49.521Z,11.69
2017-03-20T08:09:11.375Z,11.7
2017-03-20T08:10:33.855Z,11.72
2017-03-20T08:11:56.626Z,11.7
2017-03-20T08:13:18.909Z,11.73
2017-03-20T08:14:41.562Z,11.7
2017-03-20T08:16:03.496Z,11.7
2017-03-20T08:17:25.619Z,11.8
2017-03-20T08:18:47.818Z,11.72
2017-03-20T08:20:09.968Z,11.72
2017-03-20T08:21:32.104Z,11.85
2017-03-20T08:22:54.607Z,11.73
2017-03-20T08:24:17.087Z,11.82
2017-03-20T08:25:38.970Z,11.82
2017-03-20T08:27:00.596Z,11.75
2017-03-20T08:28:23.385Z,11.78
2017-03-20T08:29:45.835Z,11.86
2017-03-20T08:31:08.308Z,11.75
2017-03-20T08:32:30.792Z,11.64
2017-03-20T08:33:52.929Z,11.62
2017-03-20T08:35:15.097Z,11.7
2017-03-20T08:36:37.298Z,11.7
2017-03-20T08:37:58.854Z,11.7
2017-03-20T08:39:21.756Z,11.78
2017-03-20T08:40:43.676Z,11.76
2017-03-20T08:42:05.802Z,11.88
2017-03-20T08:43:27.631Z,11.98
2017-03-20T08:44:50.048Z,12.19
2017-03-20T08:46:12.219Z,12.23
2017-03-20T08:47:34.399Z,12.24
2017-03-20T08:48:56.546Z,12.21
2017-03-20T08:50:18.021Z,12.29
2017-03-20T08:51:40.488Z,12.16
2017-03-20T08:53:02.894Z,12.2
2017-03-20T08:54:25.467Z,12.27
2017-03-20T08:55:48.213Z,12.29
2017-03-20T08:57:10.386Z,12.49
2017-03-20T08:58:32.578Z,12.59
2017-03-20T08:59:54.129Z,12.65
2017-03-20T09:01:16.821Z,12.71
2017-03-20T09:02:38.645Z,12.67
2017-03-20T09:04:00.167Z,12.67
2017-03-20T09:05:22.627Z,12.62
2017-03-20T09:06:44.883Z,12.6
2017-03-20T09:08:06.485Z,12.53
2017-03-20T09:09:28.945Z,12.5
2017-03-20T09:10:50.945Z,12.34
2017-03-20T09:12:13.834Z,12.32
2017-03-20T09:13:36.305Z,12.34
2017-03-20T09:14:58.545Z,12.35
2017-03-20T09:16:20.428Z,12.32
2017-03-20T09:17:42.905Z,12.39
2017-03-20T09:19:05.071Z,12.38
2017-03-20T09:20:27.586Z,12.54
2017-03-20T09:21:50.048Z,12.53
2017-03-20T09:23:12.490Z,12.57
2017-03-20T09:24:34.619Z,12.71
2017-03-20T09:25:56.922Z,12.64
2017-03-20T09:27:19.095Z,12.68
2017-03-20T09:28:41.202Z,12.71
2017-03-20T09:30:03.347Z,12.72
2017-03-20T09:31:25.814Z,12.74
2017-03-20T09:32:47.636Z,12.75
2017-03-20T09:34:10.191Z,12.87
2017-03-20T09:35:32.639Z,12.87
2017-03-20T09:36:55.097Z,12.86
2017-03-20T09:38:17.528Z,12.87
2017-03-20T09:39:39.618Z,12.85
2017-03-20T09:41:01.834Z,12.92
2017-03-20T09:42:23.712Z,13.03
2017-03-20T09:43:45.976Z,13.11
2017-03-20T09:45:08.400Z,13.04
2017-03-20T09:46:30.865Z,13.03
2017-03-20T09:47:52.404Z,13.03
2017-03-20T09:49:14.897Z,13.07
2017-03-20T09:50:37.315Z,13.07
2017-03-20T09:51:59.764Z,13.08
2017-03-20T09:53:21.668Z,12.96
2017-03-20T09:54:43.837Z,12.92
2017-03-20T09:56:06.649Z,13.01
2017-03-20T09:57:29.130Z,13.03
2017-03-20T09:58:51.306Z,13.2
2017-03-20T10:00:13.522Z,13.48
2017-03-20T10:01:35.996Z,13.55
2017-03-20T10:02:58.494Z,13.55
2017-03-20T10:04:20.646Z,13.77
2017-03-20T10:05:42.778Z,13.88
2017-03-20T10:07:05.189Z,14.09
2017-03-20T10:08:27.353Z,14.03
2017-03-20T10:09:49.228Z,14.04
2017-03-20T10:11:11.692Z,14.1
2017-03-20T10:12:33.818Z,14.15
2017-03-20T10:13:56.007Z,14.29
2017-03-20T10:15:18.507Z,14.27
2017-03-20T10:16:41.120Z,14.32
2017-03-20T10:18:03.876Z,14.22
2017-03-20T10:19:26.036Z,14.1
2017-03-20T10:20:48.201Z,14.14
2017-03-20T10:22:10.371Z,14.21
2017-03-20T10:23:33.165Z,14.33
2017-03-20T10:24:55.738Z,14.45
2017-03-20T10:26:17.658Z,14.33
2017-03-20T10:27:39.916Z,14.33
2017-03-20T10:29:02.681Z,14.35
2017-03-20T10:30:25.173Z,14.57
2017-03-20T10:31:47.813Z,14.55
2017-03-20T10:33:09.984Z,14.45
2017-03-20T10:34:31.822Z,14.35
2017-03-20T10:35:53.348Z,14.27
2017-03-20T10:37:15.873Z,13.97
2017-03-20T10:38:37.723Z,13.84
2017-03-20T10:39:59.856Z,13.75
2017-03-20T10:41:21.742Z,13.63
2017-03-20T10:42:44.021Z,13.52
2017-03-20T10:44:06.187Z,13.44
2017-03-20T10:45:28.284Z,13.32
2017-03-20T10:46:50.756Z,13.32
2017-03-20T10:48:12.919Z,13.28
2017-03-20T10:49:35.095Z,13.19
2017-03-20T10:50:57.220Z,13.25
2017-03-20T10:52:19.384Z,13.23
2017-03-20T10:53:41.219Z,13.2
2017-03-20T10:55:03.862Z,13.41
2017-03-20T10:56:26.726Z,13.49
2017-03-20T10:57:48.871Z,13.63
2017-03-20T10:59:10.398Z,13.71
2017-03-20T11:00:32.580Z,13.77
2017-03-20T11:01:54.025Z,13.78
2017-03-20T11:03:16.489Z,13.77
2017-03-20T11:04:38.664Z,13.84
2017-03-20T11:06:01.042Z,13.89
2017-03-20T11:07:23.500Z,13.89
2017-03-20T11:08:45.994Z,13.77
2017-03-20T11:10:08.131Z,13.62
2017-03-20T11:11:30.327Z,13.59
2017-03-20T11:12:53.118Z,13.51
2017-03-20T11:14:15.337Z,13.49
2017-03-20T11:15:37.470Z,13.49
2017-03-20T11:16:59.887Z,13.51
2017-03-20T11:18:21.662Z,13.52
2017-03-20T11:19:43.816Z,13.7
2017-03-20T11:21:05.646Z,13.87
2017-03-20T11:22:27.584Z,13.95
2017-03-20T11:23:50.344Z,14.14
2017-03-20T11:25:12.834Z,14.1
2017-03-20T11:26:35.054Z,14.17
2017-03-20T11:27:57.536Z,14.17
2017-03-20T11:29:20.372Z,14.21
2017-03-20T11:30:42.838Z,14.39
2017-03-20T11:32:05.326Z,14.43
2017-03-20T11:33:27.870Z,14.46
2017-03-20T11:34:50.652Z,14.52
2017-03-20T11:36:13.134Z,14.36
2017-03-20T11:37:35.285Z,14.43
2017-03-20T11:38:57.258Z,14.32
2017-03-20T11:40:19.155Z,14.2
2017-03-20T11:41:41.694Z,14.18
2017-03-20T11:43:03.963Z,14.07
2017-03-20T11:44:25.813Z,13.99
2017-03-20T11:45:48.565Z,14
2017-03-20T11:47:10.390Z,14.04
2017-03-20T11:48:32.875Z,14.2
2017-03-20T11:49:55.356Z,14.18
2017-03-20T11:51:17.516Z,14.2
2017-03-20T11:52:40.058Z,14.15
2017-03-20T11:54:02.549Z,14.17
2017-03-20T11:55:24.806Z,14.17
2017-03-20T11:56:47.355Z,14.14
2017-03-20T11:58:10.045Z,14.15
2017-03-20T11:59:32.227Z,14.15
2017-03-20T12:00:54.711Z,14.27
2017-03-20T12:02:17.325Z,14.5
2017-03-20T12:03:39.235Z,14.47
2017-03-20T12:05:01.379Z,14.46
2017-03-20T12:06:22.963Z,14.57
2017-03-20T12:07:45.098Z,14.69
2017-03-20T12:09:07.630Z,14.83
2017-03-20T12:10:29.804Z,14.77
2017-03-20T12:11:51.956Z,14.83
2017-03-20T12:13:14.057Z,14.96
2017-03-20T12:14:36.305Z,15.02
2017-03-20T12:15:58.181Z,15.19
2017-03-20T12:17:20.712Z,15.39
2017-03-20T12:18:43.457Z,15.62
2017-03-20T12:20:06.031Z,15.69
2017-03-20T12:21:28.395Z,15.75
2017-03-20T12:22:50.873Z,15.71
2017-03-20T12:24:13.334Z,15.78
2017-03-20T12:25:35.490Z,15.75
2017-03-20T12:26:58.233Z,15.69
2017-03-20T12:28:20.714Z,15.67
2017-03-20T12:29:42.516Z,15.68
2017-03-20T12:31:05.023Z,15.69
2017-03-20T12:32:27.525Z,15.44
2017-03-20T12:33:49.688Z,15.09
2017-03-20T12:35:12.434Z,15.03
2017-03-20T12:36:34.677Z,15.06
2017-03-20T12:37:57.131Z,14.78
2017-03-20T12:39:19.693Z,14.58
2017-03-20T12:40:42.074Z,14.37
2017-03-20T12:42:03.667Z,14.28
2017-03-20T12:43:25.857Z,14.06
2017-03-20T12:44:48.106Z,14.14
2017-03-20T12:46:10.877Z,14.12
2017-03-20T12:47:33.427Z,14.37
2017-03-20T12:48:55.568Z,14.39
2017-03-20T12:50:18.047Z,14.43
2017-03-20T12:51:40.850Z,14.58
2017-03-20T12:53:03.008Z,14.55
2017-03-20T12:54:25.207Z,14.36
2017-03-20T12:55:47.478Z,14.22
2017-03-20T12:57:10.066Z,14.03
2017-03-20T12:58:31.979Z,13.78
2017-03-20T12:59:54.209Z,13.7
2017-03-20T13:01:16.539Z,13.57
2017-03-20T13:02:38.666Z,13.6
2017-03-20T13:04:00.530Z,13.67
2017-03-20T13:05:22.669Z,13.91
2017-03-20T13:06:44.886Z,13.88
2017-03-20T13:08:07.513Z,13.75
2017-03-20T13:09:30.104Z,13.63
2017-03-20T13:10:52.596Z,13.54
2017-03-20T13:12:14.750Z,13.52
2017-03-20T13:13:37.134Z,13.52
2017-03-20T13:14:59.291Z,13.41
2017-03-20T13:16:21.814Z,13.26
2017-03-20T13:17:44.098Z,13.15
2017-03-20T13:19:06.946Z,13.28
2017-03-20T13:20:29.093Z,13.28
2017-03-20T13:21:51.349Z,13.36
2017-03-20T13:23:13.865Z,13.42
2017-03-20T13:24:36.750Z,13.33
2017-03-20T13:25:58.897Z,13.48
2017-03-20T13:27:20.416Z,13.42
2017-03-20T13:28:42.601Z,13.46
2017-03-20T13:30:05.097Z,13.39
2017-03-20T13:31:27.313Z,13.17
2017-03-20T13:32:49.900Z,13.17
2017-03-20T13:34:12.446Z,13.23
2017-03-20T13:35:34.949Z,13.23
2017-03-20T13:36:57.441Z,13.15
2017-03-20T13:38:19.880Z,13.28
2017-03-20T13:39:42.076Z,13.3
2017-03-20T13:41:04.479Z,13.41
2017-03-20T13:42:26.327Z,13.46
2017-03-20T13:43:48.491Z,13.49
2017-03-20T13:45:10.967Z,13.55
2017-03-20T13:46:33.664Z,13.45
2017-03-20T13:47:56.223Z,13.46
2017-03-20T13:49:18.389Z,13.57
2017-03-20T13:50:40.544Z,13.39
2017-03-20T13:52:02.818Z,13.46
2017-03-20T13:53:24.965Z,13.48
2017-03-20T13:54:47.288Z,13.45
2017-03-20T13:56:09.744Z,13.44
2017-03-20T13:57:32.274Z,13.54
2017-03-20T13:58:54.743Z,13.62
2017-03-20T14:00:17.021Z,13.63
2017-03-20T14:01:39.165Z,13.49
2017-03-20T14:03:01.554Z,13.54
2017-03-20T14:04:24.032Z,13.55
2017-03-20T14:05:45.884Z,13.46
2017-03-20T14:07:08.162Z,13.48
2017-03-20T14:08:30.619Z,13.41
2017-03-20T14:09:52.936Z,13.42
2017-03-20T14:11:15.415Z,13.3
2017-03-20T14:12:37.908Z,13.39
2017-03-20T14:13:59.982Z,13.29
2017-03-20T14:15:22.357Z,13.28
2017-03-20T14:16:44.823Z,13.42
2017-03-20T14:18:07.340Z,13.51
2017-03-20T14:19:30.179Z,13.51
2017-03-20T14:20:52.675Z,13.44
2017-03-20T14:22:15.173Z,13.38
2017-03-20T14:23:37.015Z,13.36
2017-03-20T14:24:59.810Z,13.19
2017-03-20T14:26:22.333Z,13.19
2017-03-20T14:27:44.479Z,13.05
2017-03-20T14:29:07.014Z,13.11
2017-03-20T14:30:29.774Z,13.07
2017-03-20T14:31:51.932Z,13.01
2017-03-20T14:33:14.110Z,13.14
2017-03-20T14:34:36.575Z,13.32
2017-03-20T14:35:59.094Z,13.48
2017-03-20T14:37:21.680Z,13.46
2017-03-20T14:38:43.513Z,13.51
2017-03-20T14:40:05.674Z,13.49
2017-03-20T14:41:27.778Z,13.45
2017-03-20T14:42:50.241Z,13.48
2017-03-20T14:44:12.731Z,13.46
2017-03-20T14:45:35.013Z,13.33
2017-03-20T14:46:57.847Z,13.07
2017-03-20T14:48:20.335Z,12.87
2017-03-20T14:49:43.314Z,12.78
2017-03-20T14:51:04.858Z,12.7
2017-03-20T14:52:27.746Z,12.57
2017-03-20T14:53:50.208Z,12.59
2017-03-20T14:55:13.000Z,12.49
2017-03-20T14:56:35.202Z,12.5
2017-03-20T14:57:57.684Z,12.5
2017-03-20T14:59:20.316Z,12.49
2017-03-20T15:00:42.484Z,12.49
2017-03-20T15:02:04.960Z,12.52
2017-03-20T15:03:27.722Z,12.59
2017-03-20T15:04:49.865Z,12.71
2017-03-20T15:06:12.027Z,12.72
2017-03-20T15:07:34.605Z,12.59
2017-03-20T15:08:57.050Z,12.62
2017-03-20T15:10:19.224Z,12.74
2017-03-20T15:11:41.380Z,12.49
2017-03-20T15:13:03.871Z,12.47
2017-03-20T15:14:26.333Z,12.34
2017-03-20T15:15:48.805Z,12.37
2017-03-20T15:17:11.241Z,12.38
2017-03-20T15:18:33.726Z,12.38
2017-03-20T15:19:56.467Z,12.39
2017-03-20T15:21:18.950Z,12.31
2017-03-20T15:22:41.429Z,12.28
2017-03-20T15:24:03.917Z,12.27
2017-03-20T15:25:26.701Z,12.21
2017-03-20T15:26:49.140Z,12.31
2017-03-20T15:28:11.631Z,12.27
2017-03-20T15:29:34.198Z,12.27
2017-03-20T15:30:57.288Z,12.29
2017-03-20T15:32:19.454Z,12.24
2017-03-20T15:33:41.634Z,12.31
2017-03-20T15:35:04.185Z,12.31
2017-03-20T15:36:26.344Z,12.31
2017-03-20T15:37:48.857Z,12.38
2017-03-20T15:39:11.039Z,12.31
2017-03-20T15:40:33.225Z,12.32
2017-03-20T15:41:55.699Z,12.27
2017-03-20T15:43:18.746Z,12.28
2017-03-20T15:44:41.270Z,12.23
2017-03-20T15:46:03.753Z,12.16
2017-03-20T15:47:26.270Z,12.17
2017-03-20T15:48:48.732Z,12.21
2017-03-20T15:50:10.912Z,12.23
2017-03-20T15:51:33.416Z,12.13
2017-03-20T15:52:56.214Z,12.19
2017-03-20T15:54:18.362Z,12.19
2017-03-20T15:55:40.518Z,12.2
2017-03-20T15:57:03.048Z,12.13
2017-03-20T15:58:25.180Z,12.16
2017-03-20T15:59:47.657Z,12.16
2017-03-20T16:01:10.188Z,12.1
2017-03-20T16:02:32.745Z,12.13
2017-03-20T16:03:54.837Z,12.12
2017-03-20T16:05:17.456Z,12.07
2017-03-20T16:06:39.602Z,12.12
2017-03-20T16:08:01.770Z,12.04
2017-03-20T16:09:24.540Z,12.07
2017-03-20T16:10:46.695Z,12.12
2017-03-20T16:12:09.450Z,12.07
2017-03-20T16:13:31.666Z,12.17
2017-03-20T16:14:54.205Z,12.13
2017-03-20T16:16:16.617Z,12.12
2017-03-20T16:17:39.209Z,12.17
2017-03-20T16:19:01.719Z,12.17
2017-03-20T16:20:24.648Z,12.16
2017-03-20T16:21:46.924Z,12.16
2017-03-20T16:23:09.699Z,12.2
2017-03-20T16:24:31.878Z,12.23
2017-03-20T16:25:54.708Z,12.23
2017-03-20T16:27:16.599Z,12.24
2017-03-20T16:28:38.792Z,12.21
2017-03-20T16:30:20.206Z,12.17
2017-03-20T16:32:11.517Z,12.19
2017-03-20T16:33:34.068Z,12.17
2017-03-20T16:34:56.430Z,12.12
2017-03-20T16:36:18.614Z,12.12
2017-03-20T16:37:41.361Z,12.13
2017-03-20T16:39:03.848Z,12.13
2017-03-20T16:40:26.045Z,12.13
2017-03-20T16:41:47.585Z,12.07
2017-03-20T16:43:10.406Z,12.12
2017-03-20T16:44:32.359Z,12.05
2017-03-20T16:45:54.825Z,12.12
2017-03-20T16:47:17.359Z,12.13
2017-03-20T16:48:39.792Z,12.01
2017-03-20T16:50:02.545Z,12.1
2017-03-20T16:51:25.023Z,12.01
2017-03-20T16:52:47.546Z,12.14
2017-03-20T16:54:10.776Z,12.14
2017-03-20T16:55:33.274Z,12.02
2017-03-20T16:56:55.756Z,11.96
2017-03-20T16:58:18.383Z,11.98
2017-03-20T16:59:40.547Z,12.01
2017-03-20T17:01:02.737Z,12.01
2017-03-20T17:02:25.014Z,11.96
2017-03-20T17:03:46.868Z,11.91
2017-03-20T17:05:09.825Z,11.98
2017-03-20T17:06:32.331Z,11.88
2017-03-20T17:07:53.855Z,11.73
2017-03-20T17:09:15.713Z,11.76
2017-03-20T17:10:38.188Z,11.75
2017-03-20T17:12:00.663Z,11.62
2017-03-20T17:13:23.188Z,11.58
2017-03-20T17:14:45.677Z,11.57
2017-03-20T17:16:08.205Z,11.54
2017-03-20T17:17:30.348Z,11.46
2017-03-20T17:18:53.108Z,11.49
2017-03-20T17:20:15.601Z,11.58
2017-03-20T17:21:38.257Z,11.57
2017-03-20T17:23:00.528Z,11.6
2017-03-20T17:24:23.296Z,11.54
2017-03-20T17:25:45.919Z,11.51
2017-03-20T17:27:08.805Z,11.51
2017-03-20T17:28:30.979Z,11.55
2017-03-20T17:29:53.744Z,11.49
2017-03-20T17:31:16.268Z,11.58
2017-03-20T17:32:38.755Z,11.61
2017-03-20T17:34:01.225Z,11.51
2017-03-20T17:35:23.947Z,11.44
2017-03-20T17:36:46.358Z,11.54
2017-03-20T17:38:08.788Z,11.52
2017-03-20T17:39:31.333Z,11.46
2017-03-20T17:40:53.903Z,11.44
2017-03-20T17:42:16.107Z,11.46